createdAt,value
2019-03-29T09:50:58.640Z,25.4753
2019-03-29T09:51:00.942Z,25.4486
2019-03-29T09:51:03.166Z,25.4620
2019-03-29T09:51:05.490Z,25.4913
2019-03-29T09:51:07.772Z,25.4753
2019-03-29T09:51:10.016Z,25.5180
2019-03-29T09:51:12.248Z,25.5180
2019-03-29T09:51:14.544Z,25.5314
2019-03-29T09:51:17.621Z,25.5314
2019-03-29T09:51:19.845Z,25.5180
2019-03-29T09:51:22.061Z,25.5608
2019-03-29T09:51:24.289Z,25.5928
2019-03-29T09:51:26.517Z,25.5928
2019-03-29T09:51:29.572Z,25.5180
2019-03-29T09:51:31.927Z,25.4753
2019-03-29T09:51:36.032Z,25.5047
2019-03-29T09:51:38.452Z,25.5180
2019-03-29T09:51:40.677Z,25.4753
2019-03-29T09:51:42.905Z,25.4913
2019-03-29T09:51:45.133Z,25.4913
2019-03-29T09:51:47.358Z,25.4913
2019-03-29T09:51:49.581Z,25.4913
2019-03-29T09:51:51.807Z,25.5047
2019-03-29T09:52:23.754Z,25.4486
2019-03-29T09:52:25.972Z,25.4353
2019-03-29T09:52:28.200Z,25.5047
2019-03-29T09:52:30.424Z,25.5314
2019-03-29T09:52:32.658Z,25.5314
2019-03-29T09:52:34.877Z,25.5314
2019-03-29T09:52:37.094Z,25.5474
2019-03-29T09:52:39.319Z,25.5314
2019-03-29T09:53:00.914Z,25.4913
2019-03-29T09:53:03.731Z,25.4353
2019-03-29T09:53:05.975Z,25.4486
2019-03-29T09:53:08.217Z,25.4486
2019-03-29T09:53:10.452Z,25.4486
2019-03-29T09:53:12.682Z,25.4192
2019-03-29T09:53:14.936Z,25.4059
2019-03-29T09:53:17.175Z,25.4486
2019-03-29T09:53:19.405Z,25.4486
2019-03-29T09:53:21.649Z,25.4620
2019-03-29T09:53:23.970Z,25.5047
2019-03-29T09:53:26.184Z,25.4913
2019-03-29T09:53:28.400Z,25.5047
2019-03-29T09:53:45.088Z,25.4353
2019-03-29T09:53:53.450Z,25.3925
2019-03-29T09:54:15.372Z,25.4486
2019-03-29T09:54:23.669Z,25.4059
2019-03-29T09:54:31.665Z,25.3498
2019-03-29T09:54:39.672Z,25.3632
2019-03-29T09:54:47.656Z,25.3365
2019-03-29T09:54:55.676Z,25.3498
2019-03-29T09:55:03.678Z,25.3498
2019-03-29T09:55:11.669Z,25.3925
2019-03-29T09:55:19.719Z,25.3765
2019-03-29T09:55:27.708Z,25.3765
2019-03-29T09:55:35.659Z,25.4059
2019-03-29T09:55:45.711Z,25.4059
2019-03-29T09:55:53.705Z,25.4913
2019-03-29T09:56:01.656Z,25.5314
2019-03-29T09:56:17.298Z,25.5608
2019-03-29T09:56:37.955Z,25.5608
2019-03-29T09:56:39.793Z,25.4913
2019-03-29T09:56:48.694Z,25.5474
2019-03-29T09:56:57.699Z,25.6329
2019-03-29T09:57:09.691Z,25.5768
2019-03-29T09:57:18.683Z,25.5474
2019-03-29T09:57:37.297Z,25.5608
2019-03-29T09:57:42.695Z,25.5608
2019-03-29T09:57:51.684Z,25.5928
2019-03-29T09:58:00.688Z,25.5768
2019-03-29T09:58:09.688Z,25.5474
2019-03-29T09:58:18.684Z,25.5474
2019-03-29T09:58:27.793Z,25.5608
2019-03-29T09:58:36.702Z,25.5180
2019-03-29T09:58:45.692Z,25.5474
2019-03-29T09:58:54.704Z,25.5608
2019-03-29T09:59:03.688Z,25.5474
2019-03-29T09:59:14.953Z,25.5608
2019-03-29T09:59:25.672Z,25.5180
2019-03-29T09:59:34.700Z,25.5474
2019-03-29T09:59:43.697Z,25.5180
2019-03-29T09:59:52.699Z,25.5314
2019-03-29T10:00:01.699Z,25.5047
2019-03-29T10:00:19.314Z,25.4913
2019-03-29T10:00:25.690Z,25.4620
2019-03-29T10:00:34.677Z,25.4620
2019-03-29T10:00:43.687Z,25.4620
2019-03-29T10:00:52.685Z,25.5047
2019-03-29T10:01:01.680Z,25.4913
2019-03-29T10:01:10.712Z,25.5047
2019-03-29T10:01:20.902Z,25.4913
2019-03-29T10:01:29.783Z,25.5180
2019-03-29T10:01:38.701Z,25.4913
2019-03-29T10:01:47.689Z,25.5047
2019-03-29T10:01:56.690Z,25.5180
2019-03-29T10:02:05.695Z,25.5180
2019-03-29T10:02:14.689Z,25.5608
2019-03-29T10:02:23.679Z,25.5608
2019-03-29T10:02:32.684Z,25.5180
2019-03-29T10:02:41.684Z,25.5180
2019-03-29T10:02:50.692Z,25.5047
2019-03-29T10:02:59.694Z,25.5047
2019-03-29T10:03:08.682Z,25.4913
2019-03-29T10:03:17.693Z,25.4753
2019-03-29T10:03:26.691Z,25.4620
2019-03-29T10:03:35.715Z,25.4486
2019-03-29T10:03:44.686Z,25.4620
2019-03-29T10:03:53.678Z,25.4353
2019-03-29T10:04:02.682Z,25.4353
2019-03-29T10:04:11.671Z,25.4192
2019-03-29T10:04:20.680Z,25.4353
2019-03-29T10:04:29.707Z,25.3765
2019-03-29T10:04:38.674Z,25.3925
2019-03-29T10:04:47.693Z,25.3925
2019-03-29T10:05:20.125Z,25.4620
2019-03-29T10:05:31.120Z,25.4059
2019-03-29T10:05:38.957Z,25.4059
2019-03-29T10:05:46.960Z,25.4192
2019-03-29T10:05:54.965Z,25.4620
2019-03-29T10:06:02.924Z,25.4620
2019-03-29T10:06:10.934Z,25.4486
2019-03-29T10:06:18.963Z,25.4486
2019-03-29T10:06:26.955Z,25.4620
2019-03-29T10:06:34.965Z,25.4753
2019-03-29T10:06:42.975Z,25.4620
2019-03-29T10:06:50.921Z,25.4486
2019-03-29T10:06:58.930Z,25.4353
2019-03-29T10:07:06.975Z,25.4753
2019-03-29T10:07:14.947Z,25.4620
2019-03-29T10:07:22.954Z,25.4620
2019-03-29T10:07:30.962Z,25.4753
2019-03-29T10:07:38.966Z,25.4753
2019-03-29T10:07:46.958Z,25.4353
2019-03-29T10:07:54.941Z,25.4753
2019-03-29T10:08:02.936Z,25.4620
2019-03-29T10:08:10.952Z,25.4353
2019-03-29T10:08:18.932Z,25.4353
2019-03-29T10:08:26.931Z,25.3365
2019-03-29T10:08:34.943Z,25.4059
2019-03-29T10:08:42.962Z,25.4753
2019-03-29T10:08:53.240Z,25.5047
2019-03-29T10:09:00.939Z,25.5180
2019-03-29T10:09:08.928Z,25.5314
2019-03-29T10:09:16.934Z,25.5608
2019-03-29T10:09:24.919Z,25.5768
2019-03-29T10:09:32.924Z,25.5928
2019-03-29T10:09:40.942Z,25.6622
2019-03-29T10:09:48.960Z,25.6062
2019-03-29T10:09:56.916Z,25.6489
2019-03-29T10:10:04.985Z,25.6756
2019-03-29T10:10:12.971Z,25.7050
2019-03-29T10:10:21.691Z,25.7183
2019-03-29T10:10:36.436Z,25.7477
2019-03-29T10:11:40.741Z,25.7744
2019-03-29T10:11:40.741Z,25.7317
2019-03-29T10:11:50.057Z,25.7744
2019-03-29T10:11:58.963Z,25.7878
2019-03-29T10:12:07.942Z,25.8598
2019-03-29T10:12:16.944Z,25.8732
2019-03-29T10:12:25.945Z,25.8999
2019-03-29T10:12:43.181Z,25.8866
2019-03-29T10:13:48.822Z,25.8171
2019-03-29T10:13:48.822Z,25.8305
2019-03-29T10:13:57.955Z,25.8866
2019-03-29T10:14:06.941Z,25.9293
2019-03-29T10:14:15.948Z,25.9159
2019-03-29T10:14:24.964Z,25.8999
2019-03-29T10:14:33.952Z,25.9293
2019-03-29T10:14:42.963Z,25.9293
2019-03-29T10:14:51.973Z,25.9586
2019-03-29T10:15:00.964Z,25.9586
2019-03-29T10:15:09.941Z,25.9426
2019-03-29T10:15:18.954Z,25.9159
2019-03-29T10:16:33.206Z,25.9426
2019-03-29T10:16:33.206Z,25.9586
2019-03-29T10:16:41.993Z,25.9293
2019-03-29T10:16:51.737Z,25.9987
2019-03-29T10:17:01.634Z,25.9987
2019-03-29T10:17:12.162Z,26.0147
2019-03-29T10:17:47.928Z,25.9586
2019-03-29T10:17:56.992Z,26.0281
2019-03-29T10:18:05.979Z,26.0548
2019-03-29T10:18:14.961Z,26.0548
2019-03-29T10:18:23.972Z,26.0281
2019-03-29T10:18:32.991Z,26.0414
2019-03-29T10:18:41.962Z,26.0281
2019-03-29T10:18:50.970Z,26.0868
2019-03-29T10:18:59.971Z,26.0868
2019-03-29T10:19:08.976Z,26.0868
2019-03-29T10:20:07.352Z,26.1429
2019-03-29T10:20:07.352Z,26.1002
2019-03-29T10:21:08.690Z,26.0735
2019-03-29T10:21:08.690Z,26.1002
2019-03-29T10:21:18.007Z,26.0868
2019-03-29T10:21:28.879Z,26.0735
2019-03-29T10:23:03.421Z,25.9854
2019-03-29T10:23:03.421Z,26.0735
2019-03-29T10:23:13.248Z,25.9854
2019-03-29T11:13:40.983Z,25.2510
2019-03-29T11:13:49.458Z,25.3071
2019-03-29T11:13:57.420Z,25.3498
2019-03-29T11:14:54.060Z,25.2083
2019-03-29T11:15:01.464Z,25.1522
2019-03-29T11:15:09.410Z,25.1949
2019-03-29T11:15:17.418Z,25.2216
2019-03-29T11:15:25.405Z,25.2216
2019-03-29T11:15:52.579Z,25.3498
2019-03-29T11:16:00.473Z,25.2510
2019-03-29T11:16:08.432Z,25.2804
2019-03-29T11:16:16.429Z,25.3204
2019-03-29T11:16:24.416Z,25.3071
2019-03-29T11:16:32.438Z,25.3204
2019-03-29T11:16:40.433Z,25.3204
2019-03-29T11:16:48.427Z,25.2510
2019-03-29T11:16:56.432Z,25.1656
2019-03-29T11:17:04.457Z,25.1949
2019-03-29T11:17:12.427Z,25.1656
2019-03-29T11:17:20.427Z,25.1816
2019-03-29T11:17:28.428Z,25.2083
2019-03-29T11:17:36.416Z,25.2377
2019-03-29T11:17:44.435Z,25.2216
2019-03-29T11:17:52.432Z,25.3071
2019-03-29T11:18:00.435Z,25.3071
2019-03-29T11:18:08.437Z,25.3365
2019-03-29T11:18:46.033Z,25.3204
2019-03-29T11:18:53.435Z,25.1389
2019-03-29T11:19:01.397Z,25.1656
2019-03-29T11:19:09.405Z,25.2510
2019-03-29T11:19:17.414Z,25.2804
2019-03-29T11:19:25.422Z,25.2937
2019-03-29T11:19:33.415Z,25.2510
2019-03-29T11:19:41.402Z,25.2510
2019-03-29T11:19:49.415Z,25.1949
2019-03-29T11:19:57.431Z,25.1949
2019-03-29T11:20:05.402Z,25.2216
2019-03-29T11:20:13.418Z,25.2644
2019-03-29T11:20:21.395Z,25.2644
2019-03-29T11:20:29.384Z,25.3204
2019-03-29T11:20:37.428Z,25.3498
2019-03-29T11:20:45.444Z,25.3498
2019-03-29T11:20:53.424Z,25.3498
2019-03-29T11:21:01.446Z,25.2937
2019-03-29T11:21:09.411Z,25.2644
2019-03-29T11:21:17.395Z,25.7744
2019-03-29T11:21:25.404Z,25.4486
2019-03-29T11:21:33.420Z,25.2216
2019-03-29T11:21:42.455Z,24.6582
2019-03-29T11:21:59.355Z,24.0761
2019-03-29T11:22:08.524Z,22.9706
2019-03-29T11:22:17.518Z,18.9117
2019-03-29T11:22:28.552Z,17.0745
2019-03-29T11:22:37.465Z,17.3602
2019-03-29T11:22:47.678Z,17.9957
2019-03-29T11:22:57.319Z,19.0398
2019-03-29T11:23:06.746Z,19.8436
2019-03-29T11:23:15.745Z,20.1293
2019-03-29T11:23:26.260Z,20.1293
2019-03-29T11:23:36.431Z,20.4524
2019-03-29T11:23:46.662Z,19.4938
2019-03-29T11:23:57.321Z,18.9544
2019-03-29T11:24:10.813Z,20.3964
2019-03-29T11:24:22.198Z,22.2923
2019-03-29T11:24:37.195Z,23.6248
2019-03-29T11:25:03.305Z,25.1522
2019-03-29T11:25:28.848Z,25.2377
2019-03-29T11:25:38.822Z,24.4446
2019-03-29T11:25:49.457Z,23.4245
2019-03-29T11:25:59.329Z,22.7035
2019-03-29T11:26:18.817Z,22.5780
2019-03-29T11:26:38.375Z,22.1935
2019-03-29T11:27:10.830Z,21.0773
2019-03-29T11:27:23.306Z,19.1814
2019-03-29T11:27:34.315Z,18.7434
2019-03-29T11:27:46.449Z,18.3883
2019-03-29T11:27:58.090Z,18.0652
2019-03-29T11:28:18.651Z,17.6112
2019-03-29T11:28:28.650Z,17.2160
2019-03-29T11:28:39.313Z,17.4857
2019-03-29T11:28:50.916Z,17.2614
2019-03-29T11:29:02.103Z,17.3735
2019-03-29T11:29:19.356Z,17.1866
2019-03-29T11:35:36.890Z,27.4727
2019-03-29T11:35:47.150Z,28.7198
2019-03-29T11:35:56.296Z,29.6811
2019-03-29T11:36:05.895Z,29.9615
2019-03-29T11:36:14.253Z,29.8360
2019-03-29T11:36:23.282Z,29.1844
2019-03-29T11:36:32.890Z,27.4006
2019-03-29T11:36:42.065Z,25.9426
2019-03-29T11:36:52.787Z,25.1255
2019-03-29T11:37:02.962Z,24.2603
2019-03-29T11:37:12.008Z,24.4018
2019-03-29T11:37:22.421Z,24.6288
2019-03-29T11:37:31.281Z,23.8064
2019-03-29T11:37:40.339Z,23.0880
2019-03-29T11:37:49.986Z,23.4112
2019-03-29T11:38:03.385Z,23.8224
2019-03-29T11:38:13.398Z,23.2990
2019-03-29T11:38:23.112Z,23.0133
2019-03-29T11:38:33.041Z,22.6341
2019-03-29T11:38:42.949Z,22.3777
2019-03-29T11:38:51.927Z,21.9398
2019-03-29T11:39:01.515Z,21.9238
2019-03-29T11:39:12.897Z,21.3443
2019-03-29T11:39:23.042Z,21.3310
2019-03-29T11:39:32.997Z,20.8904
2019-03-29T11:39:42.477Z,21.0052
2019-03-29T11:39:51.978Z,21.2749
2019-03-29T11:40:00.896Z,21.3443
2019-03-29T11:40:11.085Z,21.1334
2019-03-29T11:40:20.281Z,21.5286
2019-03-29T11:40:29.423Z,21.1761
2019-03-29T11:40:38.292Z,21.0052
2019-03-29T11:40:47.317Z,21.3310
2019-03-29T11:40:56.348Z,20.4818
2019-03-29T11:41:05.285Z,20.5219
2019-03-29T11:41:14.272Z,20.1854
2019-03-29T11:41:23.352Z,21.1200
2019-03-29T11:41:32.331Z,21.7849
2019-03-29T11:41:41.268Z,21.4725
2019-03-29T11:41:50.271Z,21.2188
2019-03-29T11:42:03.196Z,21.6434
2019-03-29T11:42:13.779Z,21.4137
2019-03-29T11:42:24.285Z,21.0613
2019-03-29T11:42:33.298Z,21.8971
2019-03-29T11:42:42.276Z,22.3644
2019-03-29T11:42:51.275Z,22.7329
2019-03-29T11:43:00.254Z,22.9145
2019-03-29T11:43:09.260Z,23.0426
2019-03-29T11:43:26.522Z,23.0560
2019-03-29T11:43:33.311Z,23.1147
2019-03-29T11:43:42.264Z,23.1441
2019-03-29T11:43:51.254Z,23.1842
2019-03-29T11:44:00.325Z,23.4245
2019-03-29T11:44:09.281Z,22.5326
2019-03-29T11:44:18.969Z,22.7035
2019-03-29T11:44:31.690Z,21.9665
2019-03-29T11:44:43.886Z,21.7555
2019-03-29T11:44:55.063Z,21.7422
2019-03-29T11:45:05.231Z,22.7756
2019-03-29T11:45:15.512Z,21.8811
2019-03-29T11:45:24.489Z,21.6434
2019-03-29T11:45:33.409Z,21.5126
2019-03-29T11:45:43.495Z,21.6140
2019-03-29T11:45:52.297Z,21.5419
2019-03-29T11:46:01.280Z,22.1107
2019-03-29T11:46:10.255Z,22.1374
2019-03-29T11:46:19.298Z,21.2028
2019-03-29T11:46:28.275Z,21.0773
2019-03-29T11:58:52.248Z,23.4672
2019-03-29T11:59:00.546Z,23.4939
2019-03-29T14:09:44.107Z,23.8785
